Terminal Aerodrome Forecast
Issued by NWS

Home | Current Version | Previous Version | Text Only | Print | Product List | Glossary On
Versions: 1 2 3 4 5 6 7 8 9 10 11 12 13 14 15 16 17 18 19 20 21 22 23 24 25 26 27 28 29 30 31 32 33 34 35 36 37 38 39 40 41
000
FTUS42 KGSP 230254 AAA
TAFHKY
TAF AMD
KHKY 230254Z 2303/2324 03004KT 4SM BR OVC004
     FM231100 05003KT 1SM BR OVC004
      TEMPO 2311/2314 1/4SM FG
     FM231400 05003KT 1 1/2SM -RADZ BR OVC003
     FM231500 03003KT 4SM -RADZ BR OVC002
     FM231700 00000KT 4SM -RADZ BR OVC007=

USA.gov is the U.S. government's official web portal to all federal, state and local government web resources and services.